Jump to content


Photo

METAR de alguns aeroportos do Centro-Sul

Mais um dia de muita chuva

  • You cannot start a new topic
  • Please log in to reply
5 replies to this topic

#1 jecsantos

jecsantos
  • Usuários
  • 1,760 posts
  • Gender:Male
  • Location:Campo Grande
  • Cidade/UF/País:Campo Grande/MS/Brasil
  • Data de Nascimento:26/12/1987

Posted 20 de June de 2012 - 19:02

Será que teremos mais um dia de aeroportos fechados.


METAR:

SBCG 202140Z 21004KT 4000 BR BKN002 18/17 Q1013 RERA



METAR:

SBCT 202100Z 12007KT 4000 -RA BKN003 OVC009 12/12 Q1015



METAR:

SBPP 202100Z 18004KT 0200 FG VV/// 15/15 Q1014



METAR:

SBDN 202100Z 30006KT 3500 -RA BR BKN004 BKN006 OVC015 19/19 Q10 12



METAR:

SBGL 202100Z 36004KT 3000 BR BKN010 BKN080 22/21 Q1010



METAR:

SBRJ 202100Z 33006KT 4500 BR SCT035 OVC080 23/22 Q1009




E estamos em semana de RIO+20.



:unsure:



#2 Sydy

Sydy
  • Expulsos
  • 7,065 posts
  • Gender:Male
  • Location:SJK
  • Cidade/UF/País:SJK
  • Data de Nascimento:15/01/1970

Posted 22 de June de 2012 - 11:44

Eu alternei hj e estou esperando abrir pra decolar...

Edited by Sydy, 22 de June de 2012 - 11:44 .


#3 Leotuning

Leotuning
  • Usuários
  • 157 posts
  • Gender:Male
  • Location:Porto Alegre
  • Cidade/UF/País:Porto alegre - RS / Brasil
  • Data de Nascimento:18/05/1983

Posted 27 de June de 2012 - 11:33

aonde eu posso encontrar esses codigos metar e taf para visualizacao???

#4 Safe Flight

Safe Flight
  • Usuários
  • 2,315 posts
  • Gender:Male
  • Location:CNF
  • Cidade/UF/País:Brasil
  • Data de Nascimento:18/09/1991

Posted 27 de June de 2012 - 22:39

Here:

http://www.redemet.aer.mil.br/#

:thumbsup:

#5 EMB-195

EMB-195
  • Usuários
  • 79 posts
  • Gender:Male
  • Cidade/UF/País:Brasil
  • Data de Nascimento:00/00/1900

Posted 07 de July de 2012 - 19:35

Here:

http://www.redemet.aer.mil.br/#

:thumbsup:


Esse aqui é bem melhor pois tem praticamente o mundo todo, consute só METAR ou METAR e TAF juntos, sem a chatice de ficar colocando código de segurança pra acessar a mensagem!
http://www.aviationw...ov/adds/metars/

Edited by EMB-195, 07 de July de 2012 - 19:37 .


#6 Safe Flight

Safe Flight
  • Usuários
  • 2,315 posts
  • Gender:Male
  • Location:CNF
  • Cidade/UF/País:Brasil
  • Data de Nascimento:18/09/1991

Posted 09 de July de 2012 - 12:14


Esse aqui é bem melhor pois tem praticamente o mundo todo, consute só METAR ou METAR e TAF juntos, sem a chatice de ficar colocando código de segurança pra acessar a mensagem!
http://www.aviationw...ov/adds/metars/

Obrigado por compartilhar!

:joinha: